createdAt,value
2018-09-01T00:02:26.666Z,14.40
2018-09-01T00:07:29.683Z,14.30
2018-09-01T00:12:32.971Z,14.30
2018-09-01T00:17:36.181Z,14.20
2018-09-01T00:22:39.504Z,14.20
2018-09-01T00:27:42.552Z,14.30
2018-09-01T00:32:45.836Z,14.20
2018-09-01T00:37:54.554Z,14.10
2018-09-01T00:42:59.555Z,14.00
2018-09-01T00:48:02.731Z,13.90
2018-09-01T00:53:06.084Z,13.90
2018-09-01T00:58:09.123Z,13.80
2018-09-01T01:03:12.332Z,13.80
2018-09-01T01:08:15.447Z,13.80
2018-09-01T01:13:18.972Z,13.80
2018-09-01T01:18:22.050Z,13.90
2018-09-01T01:23:25.042Z,13.80
2018-09-01T01:28:28.320Z,13.70
2018-09-01T01:33:32.016Z,13.60
2018-09-01T01:38:35.026Z,13.50
2018-09-01T01:43:38.036Z,13.40
2018-09-01T01:48:41.211Z,13.40
2018-09-01T01:53:44.427Z,13.30
2018-09-01T01:58:47.750Z,13.00
2018-09-01T02:03:51.060Z,12.90
2018-09-01T02:08:54.285Z,12.70
2018-09-01T02:13:57.364Z,12.60
2018-09-01T02:19:00.374Z,12.70
2018-09-01T02:24:03.406Z,12.70
2018-09-01T02:29:07.060Z,12.50
2018-09-01T02:34:10.087Z,12.20
2018-09-01T02:39:13.118Z,11.90
2018-09-01T02:44:16.347Z,11.80
2018-09-01T02:49:19.603Z,11.70
2018-09-01T02:54:22.640Z,11.60
2018-09-01T02:59:25.733Z,11.60
2018-09-01T03:04:28.819Z,11.60
2018-09-01T03:09:31.942Z,11.60
2018-09-01T03:14:35.148Z,11.60
2018-09-01T03:19:38.175Z,11.60
2018-09-01T03:24:41.382Z,11.60
2018-09-01T03:29:44.681Z,11.50
2018-09-01T03:34:47.663Z,11.50
2018-09-01T03:39:50.770Z,11.40
2018-09-01T03:44:53.743Z,11.40
2018-09-01T03:49:56.847Z,11.40
2018-09-01T03:54:59.899Z,11.40
2018-09-01T04:00:03.375Z,11.40
2018-09-01T04:05:07.215Z,11.50
2018-09-01T04:10:10.262Z,11.50
2018-09-01T04:15:13.341Z,11.40
2018-09-01T04:20:16.378Z,11.20
2018-09-01T04:25:19.401Z,11.10
2018-09-01T04:30:22.365Z,11.00
2018-09-01T04:35:25.575Z,11.00
2018-09-01T04:40:28.622Z,11.00
2018-09-01T04:45:31.706Z,11.00
2018-09-01T04:50:35.000Z,10.90
2018-09-01T04:55:37.984Z,11.00
2018-09-01T05:00:40.999Z,10.90
2018-09-01T05:05:44.228Z,10.70
2018-09-01T05:10:47.262Z,10.70
2018-09-01T05:15:50.332Z,10.60
2018-09-01T05:20:53.337Z,10.70
2018-09-01T05:25:56.725Z,11.00
2018-09-01T05:30:59.968Z,11.30
2018-09-01T05:36:03.037Z,11.60
2018-09-01T05:41:06.229Z,11.80
2018-09-01T05:46:09.248Z,12.10
2018-09-01T05:51:12.507Z,12.20
2018-09-01T05:56:15.753Z,12.60
2018-09-01T06:01:19.015Z,13.10
2018-09-01T06:06:22.247Z,13.20
2018-09-01T06:11:25.530Z,13.60
2018-09-01T06:16:28.626Z,14.30
2018-09-01T06:21:31.621Z,15.40
2018-09-01T06:26:34.653Z,16.60
2018-09-01T06:31:40.471Z,17.30
2018-09-01T06:36:43.725Z,17.50
2018-09-01T06:41:46.807Z,17.50
2018-09-01T06:46:49.737Z,17.70
2018-09-01T06:51:52.949Z,17.50
2018-09-01T06:56:55.971Z,18.20
2018-09-01T07:01:59.089Z,18.20
2018-09-01T07:07:02.279Z,18.50
2018-09-01T07:12:05.783Z,18.60
2018-09-01T07:17:09.199Z,18.70
2018-09-01T07:22:12.217Z,19.40
2018-09-01T07:27:15.516Z,20.00
2018-09-01T07:32:18.677Z,19.90
2018-09-01T07:37:22.023Z,20.40
2018-09-01T07:42:25.041Z,20.20
2018-09-01T07:47:28.362Z,20.10
2018-09-01T07:52:31.313Z,19.30
2018-09-01T07:57:34.571Z,19.10
2018-09-01T08:02:37.815Z,19.00
2018-09-01T08:07:40.965Z,19.20
2018-09-01T08:12:44.032Z,19.40
2018-09-01T08:17:47.221Z,19.50
2018-09-01T08:22:50.486Z,19.40
2018-09-01T08:27:53.572Z,19.10
2018-09-01T08:32:56.820Z,19.40
2018-09-01T08:37:59.940Z,19.20
2018-09-01T08:43:03.088Z,19.50
2018-09-01T08:48:06.350Z,19.40
2018-09-01T08:53:09.552Z,19.40
2018-09-01T08:58:12.849Z,19.50
2018-09-01T09:03:15.924Z,19.20
2018-09-01T09:08:19.184Z,19.70
2018-09-01T09:13:22.236Z,19.90
2018-09-01T09:18:25.384Z,19.90
2018-09-01T09:23:28.436Z,19.70
2018-09-01T09:28:31.621Z,19.90
2018-09-01T09:33:34.726Z,20.30
2018-09-01T09:38:38.057Z,19.70
2018-09-01T09:43:41.448Z,19.90
2018-09-01T09:48:44.616Z,20.20
2018-09-01T09:53:47.959Z,19.70
2018-09-01T09:58:51.593Z,20.30
2018-09-01T10:03:54.732Z,20.00
2018-09-01T10:08:57.828Z,20.40
2018-09-01T10:14:00.870Z,20.30
2018-09-01T10:19:04.126Z,20.50
2018-09-01T10:24:07.989Z,20.10
2018-09-01T10:29:11.316Z,20.10
2018-09-01T10:34:14.559Z,19.90
2018-09-01T10:39:17.867Z,20.10
2018-09-01T10:44:21.071Z,20.10
2018-09-01T10:49:24.308Z,20.40
2018-09-01T10:54:27.337Z,20.70
2018-09-01T10:59:30.524Z,20.70
2018-09-01T11:04:33.479Z,21.10
2018-09-01T11:09:36.504Z,20.50
2018-09-01T11:14:39.721Z,20.90
2018-09-01T11:19:42.993Z,21.30
2018-09-01T11:24:46.527Z,20.80
2018-09-01T11:29:49.864Z,21.00
2018-09-01T11:34:53.280Z,20.90
2018-09-01T11:39:56.483Z,21.30
2018-09-01T11:44:59.500Z,21.50
2018-09-01T11:50:02.770Z,21.70
2018-09-01T11:55:06.625Z,21.60
2018-09-01T12:00:10.037Z,21.90
2018-09-01T12:05:13.232Z,21.70
2018-09-01T12:10:16.283Z,21.10
2018-09-01T12:15:19.482Z,21.60
2018-09-01T12:20:22.758Z,21.20
2018-09-01T12:25:25.965Z,20.50
2018-09-01T12:30:29.153Z,21.00
2018-09-01T12:35:32.237Z,21.10
2018-09-01T12:40:35.498Z,21.30
2018-09-01T12:45:39.060Z,21.40
2018-09-01T12:50:42.439Z,21.50
2018-09-01T12:55:45.529Z,21.30
2018-09-01T13:00:48.898Z,21.10
2018-09-01T13:05:52.061Z,21.70
2018-09-01T13:10:55.323Z,21.50
2018-09-01T13:15:58.453Z,21.80
2018-09-01T13:21:01.569Z,22.00
2018-09-01T13:26:04.808Z,21.80
2018-09-01T13:31:08.206Z,21.70
2018-09-01T13:36:11.313Z,21.50
2018-09-01T13:41:14.341Z,22.00
2018-09-01T13:46:17.491Z,21.90
2018-09-01T13:51:20.752Z,21.60
2018-09-01T13:56:23.946Z,21.90
2018-09-01T14:01:27.136Z,21.60
2018-09-01T14:06:30.156Z,22.10
2018-09-01T14:11:33.168Z,22.10
2018-09-01T14:16:36.443Z,22.10
2018-09-01T14:21:39.492Z,22.10
2018-09-01T14:26:42.620Z,21.80
2018-09-01T14:31:45.608Z,22.10
2018-09-01T14:36:48.676Z,21.90
2018-09-01T14:41:51.759Z,22.00
2018-09-01T14:46:54.879Z,21.80
2018-09-01T14:51:58.119Z,21.80
2018-09-01T14:57:01.175Z,21.80
2018-09-01T15:02:04.537Z,22.00
2018-09-01T15:07:07.663Z,21.90
2018-09-01T15:12:10.834Z,22.20
2018-09-01T15:17:14.016Z,22.20
2018-09-01T15:22:17.149Z,21.90
2018-09-01T15:27:20.376Z,21.80
2018-09-01T15:32:23.651Z,21.80
2018-09-01T15:37:26.999Z,21.90
2018-09-01T15:42:30.074Z,21.90
2018-09-01T15:47:33.410Z,22.00
2018-09-01T15:52:36.467Z,22.10
2018-09-01T15:57:39.735Z,21.80
2018-09-01T16:02:42.773Z,21.70
2018-09-01T16:07:45.876Z,21.90
2018-09-01T16:12:52.412Z,21.90
2018-09-01T16:17:55.736Z,21.80
2018-09-01T16:22:58.922Z,21.70
2018-09-01T16:28:02.495Z,21.80
2018-09-01T16:33:07.394Z,21.60
2018-09-01T16:38:10.619Z,21.60
2018-09-01T16:43:13.936Z,21.50
2018-09-01T16:48:17.016Z,21.50
2018-09-01T16:53:20.271Z,21.40
2018-09-01T16:58:23.268Z,21.30
2018-09-01T17:03:26.276Z,21.30
2018-09-01T17:08:29.397Z,21.20
2018-09-01T17:13:32.394Z,21.00
2018-09-01T17:18:35.497Z,20.90
2018-09-01T17:23:38.690Z,20.80
2018-09-01T17:28:41.760Z,20.70
2018-09-01T17:33:45.877Z,20.70
2018-09-01T17:38:48.830Z,20.50
2018-09-01T17:43:51.869Z,20.40
2018-09-01T17:48:54.885Z,20.00
2018-09-01T17:53:58.140Z,19.70
2018-09-01T17:59:01.173Z,19.50
2018-09-01T18:04:04.447Z,19.30
2018-09-01T18:09:07.771Z,19.00
2018-09-01T18:14:10.807Z,18.70
2018-09-01T18:19:13.815Z,18.40
2018-09-01T18:24:16.988Z,18.20
2018-09-01T18:29:20.009Z,18.00
2018-09-01T18:34:23.156Z,18.10
2018-09-01T18:39:26.276Z,18.00
2018-09-01T18:44:29.738Z,17.80
2018-09-01T18:49:32.883Z,17.60
2018-09-01T18:54:36.344Z,17.50
2018-09-01T18:59:39.399Z,17.30
2018-09-01T19:04:42.701Z,17.10
2018-09-01T19:09:45.853Z,16.90
2018-09-01T19:14:48.957Z,16.90
2018-09-01T19:19:52.307Z,16.90
2018-09-01T19:24:55.548Z,16.90
2018-09-01T19:29:58.629Z,16.80
2018-09-01T19:35:01.837Z,16.70
2018-09-01T19:40:06.156Z,16.70
2018-09-01T19:45:09.419Z,16.70
2018-09-01T19:50:12.552Z,16.90
2018-09-01T19:55:15.749Z,17.20
2018-09-01T20:00:18.790Z,17.30
2018-09-01T20:05:22.140Z,17.20
2018-09-01T20:10:25.237Z,17.20
2018-09-01T20:15:28.438Z,17.10
2018-09-01T20:20:31.484Z,17.00
2018-09-01T20:25:34.614Z,17.00
2018-09-01T20:30:38.035Z,17.00
2018-09-01T20:35:46.866Z,17.00
2018-09-01T20:40:49.974Z,17.00
2018-09-01T20:45:53.098Z,17.00
2018-09-01T20:50:56.122Z,16.80
2018-09-01T20:55:59.294Z,16.60
2018-09-01T21:01:02.517Z,16.30
2018-09-01T21:06:06.029Z,16.10
2018-09-01T21:11:09.153Z,16.20
2018-09-01T21:16:12.280Z,16.20
2018-09-01T21:21:15.328Z,16.10
2018-09-01T21:26:18.493Z,16.00
2018-09-01T21:31:21.487Z,15.90
2018-09-01T21:36:24.895Z,15.80
2018-09-01T21:41:27.916Z,15.90
2018-09-01T21:46:30.929Z,15.90
2018-09-01T21:51:33.966Z,15.90
2018-09-01T21:56:37.312Z,15.70
2018-09-01T22:01:40.340Z,15.70
2018-09-01T22:06:43.505Z,15.80
2018-09-01T22:11:46.503Z,15.70
2018-09-01T22:16:49.816Z,15.70
2018-09-01T22:21:52.851Z,15.70
2018-09-01T22:26:56.043Z,15.80
2018-09-01T22:31:59.058Z,15.80
2018-09-01T22:37:02.377Z,15.70
2018-09-01T22:42:05.979Z,15.60
2018-09-01T22:47:13.536Z,15.40
2018-09-01T22:52:16.518Z,15.40
2018-09-01T22:57:20.012Z,15.40
2018-09-01T23:02:23.091Z,15.40
2018-09-01T23:07:26.207Z,15.50
2018-09-01T23:12:29.176Z,15.50
2018-09-01T23:17:32.200Z,15.30
2018-09-01T23:22:35.191Z,15.20
2018-09-01T23:27:38.227Z,15.10
2018-09-01T23:32:41.207Z,15.10
2018-09-01T23:37:44.408Z,15.10
2018-09-01T23:42:47.552Z,15.10
2018-09-01T23:47:50.598Z,15.10
2018-09-01T23:52:53.771Z,14.90
2018-09-01T23:57:56.765Z,14.90
